createdAt,value
2017-06-16T00:07:11.000Z,16.8
2017-06-16T00:23:55.000Z,16.8
2017-06-16T00:40:39.000Z,16.8
2017-06-16T00:57:23.000Z,16.8
2017-06-16T01:14:07.000Z,16.8
2017-06-16T01:30:51.000Z,16.8
2017-06-16T01:47:35.000Z,16.8
2017-06-16T02:04:19.000Z,16.5
2017-06-16T02:21:03.000Z,16.5
2017-06-16T02:37:47.000Z,16.2
2017-06-16T02:54:30.000Z,16.2
2017-06-16T03:11:15.000Z,16.2
2017-06-16T03:27:58.000Z,16.2
2017-06-16T03:44:41.000Z,16.2
2017-06-16T04:01:24.000Z,16.2
2017-06-16T04:18:09.000Z,16.2
2017-06-16T04:34:52.000Z,16.5
2017-06-16T04:51:36.000Z,16.5
2017-06-16T05:08:20.000Z,16.8
2017-06-16T05:25:04.000Z,17.1
2017-06-16T05:41:49.000Z,17.4
2017-06-16T05:55:13.000Z,18.1
2017-06-16T06:11:58.000Z,18.4
2017-06-16T06:28:43.000Z,18.4
2017-06-16T06:45:29.000Z,18.1
2017-06-16T07:02:14.000Z,18.4
2017-06-16T07:19:00.000Z,19
2017-06-16T07:35:45.000Z,19
2017-06-16T07:52:32.000Z,19.7
2017-06-16T07:59:14.000Z,20.3
2017-06-16T08:09:19.000Z,20.6
2017-06-16T08:16:02.000Z,20
2017-06-16T08:29:27.000Z,19.4
2017-06-16T08:42:53.000Z,20
2017-06-16T08:56:18.000Z,20.6
2017-06-16T09:13:05.000Z,21
2017-06-16T09:26:32.000Z,20.3
2017-06-16T09:43:18.000Z,19.7
2017-06-16T10:00:05.000Z,20
2017-06-16T10:26:57.000Z,20.3
2017-06-16T10:43:44.000Z,20.3
2017-06-16T10:50:26.000Z,19.7
2017-06-16T11:03:52.000Z,20.3
2017-06-16T11:20:40.000Z,20.3
2017-06-16T11:37:27.000Z,20.6
2017-06-16T11:50:53.000Z,20
2017-06-16T12:07:39.000Z,20.3
2017-06-16T12:21:05.000Z,19.7
2017-06-16T12:37:52.000Z,19.7
2017-06-16T12:47:56.000Z,20.3
2017-06-16T13:04:43.000Z,20.6
2017-06-16T13:21:31.000Z,20.6
2017-06-16T13:31:34.000Z,20
2017-06-16T13:48:22.000Z,20
2017-06-16T14:05:08.000Z,20.6
2017-06-16T14:21:56.000Z,20.3
2017-06-16T14:38:43.000Z,20.3
2017-06-16T14:55:30.000Z,20
2017-06-16T15:05:35.000Z,19.4
2017-06-16T15:22:21.000Z,19
2017-06-16T15:39:06.000Z,19.4
2017-06-16T15:55:53.000Z,19
2017-06-16T16:12:38.000Z,19
2017-06-16T16:26:03.000Z,19.7
2017-06-16T16:39:28.000Z,19
2017-06-16T16:56:14.000Z,18.7
2017-06-16T17:13:00.000Z,18.7
2017-06-16T17:29:45.000Z,18.4
2017-06-16T17:46:31.000Z,18.4
2017-06-16T18:03:16.000Z,18.1
2017-06-16T18:20:01.000Z,18.4
2017-06-16T18:36:46.000Z,17.8
2017-06-16T18:53:31.000Z,17.4
2017-06-16T19:10:15.000Z,17.4
2017-06-16T19:26:59.000Z,17.1
2017-06-16T19:43:43.000Z,17.1
2017-06-16T20:00:28.000Z,16.8
2017-06-16T20:17:12.000Z,16.5
2017-06-16T20:33:55.000Z,16.5
2017-06-16T20:50:38.000Z,15.8
2017-06-16T21:07:22.000Z,15.5
2017-06-16T21:24:05.000Z,15.2
2017-06-16T21:40:48.000Z,14.9
2017-06-16T21:57:30.000Z,14.9
2017-06-16T22:14:12.000Z,14.6
2017-06-16T22:30:54.000Z,14.2
2017-06-16T22:47:35.000Z,14.2
2017-06-16T23:04:18.000Z,13.9
2017-06-16T23:20:59.000Z,13.9
2017-06-16T23:37:40.000Z,13.6
2017-06-16T23:54:22.000Z,13.6
